• LFSB

    METAR de LFSB (émis le 2020/12/04 10:00 UTC):
    LFSB 041000Z 27004KT 9999 SCT019 BKN073 04/01 Q0990 NOSIG

    TAF de LFSB (émis le 2020/12/04 06:22 UTC):
    LFSB 040500Z 0406/0506 12006KT 9999 SCT050 BKN080 TEMPO 0408/0424 4000 RA PROB30 TEMPO 0412/0424 BKN012
  • LFSX

    METAR de LFSX (émis le 2020/12/04 10:00 UTC):
    LFSX 041000Z AUTO 13010KT 9999 -RA BKN027 BKN037 OVC043 04/03 Q0989

    TAF de LFSX (émis le 2020/12/04 09:51 UTC):
    LFSX 040800Z 0409/0509 20010G25KT 9999 OVC025 BECMG 0409/0411 17010KT TEMPO 0411/0503 3000 SHRA SCT015TCU OVC020 PROB40 TEMPO 0421/0503 2000 SHSN SCT010 OVC015
  • LFSD

    METAR de LFSD (émis le 2020/12/04 10:00 UTC):
    LFSD 041000Z AUTO VRB02KT CAVOK 06/06 Q0988

    TAF de LFSD (émis le 2015/06/01 00:11 UTC):
    LFSD 010600Z 0100/0124 CNL
  • LFGJ

    METAR de LFGJ (émis le 2020/12/04 10:00 UTC):
    LFGJ 041000Z AUTO 17008KT 9999 -RA FEW020 SCT029 BKN042 06/05 Q0989 TEMPO 4000 SHRA BKN008 FEW020CB

    TAF COURT de LFGJ
    (émis le 2020/12/04 09:54 UTC):
    TAF LFGJ 040800Z 0409/0418 20010KT 9999 BKN030 TEMPO 0409/0415 4000 SHRA BKN008 FEW020CB
  • LFJL

    METAR de LFJL (émis le 2020/12/04 10:00 UTC):
    LFJL 041000Z AUTO 17013KT 9999 BKN019 BKN026 OVC035 06/04 Q0987 TEMPO BKN013 FEW020TCU BKN025

    TAF de LFJL (émis le 2020/12/04 06:21 UTC):
    LFJL 040512Z 0406/0506 19015G25KT 9999 SCT020 BKN030 BECMG 0408/0410 17010KT PROB40 TEMPO 0410/0416 -SHRA BKN013 FEW020TCU BKN025 TEMPO 0423/0506 BKN008
  • LFST

    METAR de LFST (émis le 2020/12/04 10:00 UTC):
    LFST 041000Z AUTO 20009KT 150V240 9999 -RA FEW039 OVC062 06/04 Q0989 NOSIG

    TAF de LFST (émis le 2020/12/04 06:21 UTC):
    LFST 040512Z 0406/0506 18009KT 9999 FEW040 BKN080 BECMG 0407/0410 -RA PROB40 TEMPO 0415/0423 5000 RA BKN008 OVC030 BECMG 0500/0503 4000 BR SCT004 BKN040